Time;durP1;ratioP1;P1;durP2;ratioP2;P2;SDS_P1;SDS_P2;PMS_P1;PMS_P2;Temp;Humidity;BMP_temperature;BMP_pressure;BME280_temperature;BME280_humidity;BME280_pressure;Samples;Min_cycle;Max_cycle;Signal;HPM_P1;HPM_P2
2022/06/02 00:02:07;;;;;;;2.95;1.63;;;;;;;16.60;45.33;100784.22;4096349;28;20054;-63
2022/06/02 00:04:20;;;;;;;5.53;1.90;;;;;;;16.67;45.08;100786.78;4103142;28;20052;-63
2022/06/02 00:06:37;;;;;;;3.75;1.80;;;;;;;16.64;44.96;100789.44;4082116;29;20142;-63
2022/06/02 00:09:02;;;;;;;4.25;1.88;;;;;;;16.61;45.54;100797.34;4098498;29;20149;-63
2022/06/02 00:11:18;;;;;;;2.72;1.27;;;;;;;16.61;45.15;100799.97;4099410;29;20043;-63
2022/06/02 00:13:28;;;;;;;2.80;1.50;;;;;;;16.60;45.38;100799.97;4111457;28;20042;-63
2022/06/02 00:15:38;;;;;;;7.75;2.20;;;;;;;16.64;45.34;100802.56;4099108;28;20059;-63
2022/06/02 00:17:46;;;;;;;6.25;1.95;;;;;;;16.65;45.82;100803.47;4112989;28;20454;-63
2022/06/02 00:19:55;;;;;;;5.40;2.03;;;;;;;16.62;45.47;100801.72;4099664;28;20606;-63
2022/06/02 00:22:04;;;;;;;5.38;1.92;;;;;;;16.60;45.73;100802.59;4112976;28;20042;-63
2022/06/02 00:24:39;;;;;;;4.45;1.95;;;;;;;16.52;45.68;100798.25;4103180;28;20071;-63
2022/06/02 00:26:46;;;;;;;3.05;1.63;;;;;;;16.48;46.61;100799.16;4113781;28;20049;-63
2022/06/02 00:29:00;;;;;;;4.03;2.10;;;;;;;16.47;46.08;100797.41;4112094;28;20046;-63
2022/06/02 00:31:11;;;;;;;4.78;1.70;;;;;;;16.47;46.30;100799.16;4098436;28;20046;-63
2022/06/02 00:33:22;;;;;;;2.97;1.83;;;;;;;16.51;46.04;100800.88;4090140;29;20587;-63
2022/06/02 00:35:32;;;;;;;4.80;1.80;;;;;;;16.46;46.56;100800.06;4113483;28;20490;-63
2022/06/02 00:37:41;;;;;;;2.78;1.80;;;;;;;16.46;46.16;100802.69;4089529;28;20128;-63
2022/06/02 00:39:47;;;;;;;3.53;1.85;;;;;;;16.45;46.66;100806.16;4108011;28;20035;-63
2022/06/02 00:42:01;;;;;;;3.00;1.42;;;;;;;16.43;46.44;100813.16;4114052;28;20061;-63
2022/06/02 00:44:16;;;;;;;5.25;1.70;;;;;;;16.39;46.61;100807.94;4094517;29;20039;-63
2022/06/02 00:46:24;;;;;;;3.38;1.80;;;;;;;16.35;46.54;100814.09;4089640;29;20058;-63
2022/06/02 00:48:40;;;;;;;4.30;1.90;;;;;;;16.34;46.35;100822.84;4113351;28;20047;-63
2022/06/02 00:50:53;;;;;;;4.70;2.38;;;;;;;16.34;46.25;100822.84;4108329;28;20491;-63
2022/06/02 00:53:06;;;;;;;5.22;2.05;;;;;;;16.35;46.51;100821.97;4114516;28;20130;-63
2022/06/02 00:57:45;;;;;;;7.47;2.10;;;;;;;16.31;46.42;100825.47;4110417;28;20134;-63
2022/06/02 01:00:00;;;;;;;4.72;1.90;;;;;;;16.30;46.38;100823.72;4104039;28;20499;-63
2022/06/02 01:02:05;;;;;;;4.40;1.83;;;;;;;16.22;47.21;100825.47;4096405;28;20127;-63
2022/06/02 01:04:11;;;;;;;4.18;1.60;;;;;;;16.26;46.86;100826.38;4093059;29;20064;-63
2022/06/02 01:06:34;;;;;;;3.58;1.98;;;;;;;16.19;47.21;100833.38;4084726;29;20047;-63
2022/06/02 01:08:56;;;;;;;5.22;2.00;;;;;;;16.13;47.13;100828.16;4106831;28;20046;-63
2022/06/02 01:11:11;;;;;;;2.45;1.77;;;;;;;16.08;47.70;100833.41;4110184;28;20050;-63
2022/06/02 01:13:34;;;;;;;6.10;2.55;;;;;;;16.07;47.32;100833.41;4098501;28;20453;-63
2022/06/02 01:15:48;;;;;;;6.57;2.10;;;;;;;15.98;47.69;100829.06;4111761;28;20141;-63
2022/06/02 01:18:04;;;;;;;4.03;1.90;;;;;;;15.97;47.62;100835.16;4106159;28;20047;-63
2022/06/02 01:20:20;;;;;;;4.97;2.05;;;;;;;15.89;47.61;100827.34;4100358;28;20380;-63
2022/06/02 01:22:45;;;;;;;3.03;1.63;;;;;;;15.86;48.13;100838.69;4090016;29;20436;-63
2022/06/02 01:25:05;;;;;;;7.38;1.73;;;;;;;15.82;47.99;100836.09;4101452;28;20486;-63
2022/06/02 01:27:25;;;;;;;4.47;1.85;;;;;;;15.78;49.12;100834.28;4091264;28;20095;-64
2022/06/02 01:30:07;;;;;;;3.47;1.83;;;;;;;15.65;49.28;100836.94;4112481;28;20043;-63
2022/06/02 01:32:14;;;;;;;3.35;1.80;;;;;;;15.62;49.79;100839.53;4110805;28;20047;-64
2022/06/02 01:34:35;;;;;;;3.70;1.70;;;;;;;15.63;50.11;100843.91;4112753;28;20513;-64
2022/06/02 01:36:45;;;;;;;3.58;1.80;;;;;;;15.56;50.24;100836.94;4099294;28;20059;-64
2022/06/02 01:39:05;;;;;;;2.72;1.92;;;;;;;15.48;49.28;100836.09;4112083;28;20133;-64
2022/06/02 01:41:17;;;;;;;4.28;2.00;;;;;;;15.42;49.64;100836.06;4081668;29;20074;-64
2022/06/02 01:43:30;;;;;;;4.40;1.67;;;;;;;15.31;50.40;100836.06;4108961;28;20047;-64
2022/06/02 01:46:00;;;;;;;5.15;2.53;;;;;;;15.27;50.13;100840.41;4113110;28;20042;-64
2022/06/02 01:48:15;;;;;;;5.25;2.20;;;;;;;15.26;50.19;100841.31;4107987;28;20043;-64
2022/06/02 01:50:31;;;;;;;4.60;1.98;;;;;;;15.30;50.49;100836.91;4100714;28;20043;-64
2022/06/02 01:52:43;;;;;;;3.95;1.98;;;;;;;15.32;49.78;100846.53;4090896;28;20160;-64
2022/06/02 01:54:59;;;;;;;3.75;2.03;;;;;;;15.28;49.98;100836.91;4106320;28;20038;-64
2022/06/02 01:57:28;;;;;;;6.15;1.95;;;;;;;15.26;50.13;100843.91;4106009;28;20038;-63
2022/06/02 01:59:41;;;;;;;4.72;1.90;;;;;;;15.25;50.17;100846.53;4115250;28;20038;-64
2022/06/02 02:01:52;;;;;;;5.93;2.33;;;;;;;15.18;50.56;100853.50;4112078;28;20046;-63
2022/06/02 02:04:13;;;;;;;10.55;2.00;;;;;;;15.12;51.34;100856.13;4111396;28;20102;-63
2022/06/02 02:06:24;;;;;;;4.72;2.22;;;;;;;15.05;51.17;100851.72;4115811;28;20047;-63
2022/06/02 02:09:02;;;;;;;4.40;2.30;;;;;;;14.98;51.72;100851.72;4114778;28;20133;-63
2022/06/02 02:11:27;;;;;;;4.93;2.03;;;;;;;14.97;51.63;100846.50;4085227;29;20139;-63
2022/06/02 02:13:38;;;;;;;4.20;1.85;;;;;;;14.96;51.59;100852.59;4115787;28;20049;-63
2022/06/02 02:15:50;;;;;;;3.92;1.95;;;;;;;14.94;51.33;100852.59;4069159;29;20047;-64
2022/06/02 02:18:13;;;;;;;3.97;1.98;;;;;;;14.93;51.26;100857.81;4093880;28;20526;-63
2022/06/02 02:20:26;;;;;;;3.58;2.20;;;;;;;14.93;51.84;100853.44;4095628;28;20039;-64
2022/06/02 02:22:37;;;;;;;6.32;2.00;;;;;;;14.96;50.97;100857.81;4108940;28;20058;-64
2022/06/02 02:24:51;;;;;;;6.70;2.58;;;;;;;14.95;51.32;100854.34;4114377;28;20038;-64
2022/06/02 02:27:01;;;;;;;5.60;2.22;;;;;;;14.93;51.46;100858.69;4098803;28;20041;-63
2022/06/02 02:29:14;;;;;;;4.20;2.30;;;;;;;14.92;51.88;100862.19;4094393;29;20043;-64
2022/06/02 02:31:27;;;;;;;4.78;2.22;;;;;;;14.88;51.74;100873.53;4113957;28;20068;-63
2022/06/02 02:33:44;;;;;;;3.50;2.07;;;;;;;14.82;51.80;100860.38;4088976;29;20050;-64
2022/06/02 02:35:57;;;;;;;4.65;2.28;;;;;;;14.73;52.07;100863.00;4113394;28;20049;-64
2022/06/02 02:38:09;;;;;;;3.33;2.20;;;;;;;14.65;52.17;100857.72;4096221;28;20134;-64
2022/06/02 02:40:19;;;;;;;4.75;2.00;;;;;;;14.59;52.11;100855.94;4083410;29;20052;-64
2022/06/02 02:42:30;;;;;;;4.72;2.22;;;;;;;14.59;52.40;100863.78;4108816;28;20046;-64
2022/06/02 02:44:39;;;;;;;4.32;2.30;;;;;;;14.58;52.17;100867.25;4110832;28;20049;-63
2022/06/02 02:46:51;;;;;;;6.03;2.20;;;;;;;14.59;52.19;100868.16;4089794;29;20129;-63
2022/06/02 02:49:01;;;;;;;5.05;2.60;;;;;;;14.61;51.67;100867.28;4095220;29;20043;-64
2022/06/02 02:51:14;;;;;;;5.75;2.75;;;;;;;14.66;51.71;100864.72;4093921;28;20043;-64
2022/06/02 02:53:21;;;;;;;;;;;;;;;14.47;51.90;100871.56;4098540;28;20121;-64
2022/06/02 02:55:29;;;;;;;4.15;2.60;;;;;;;14.58;51.84;100871.63;4114255;28;19944;-63
2022/06/02 02:57:47;;;;;;;6.22;2.33;;;;;;;14.64;51.84;100867.31;4115076;28;20825;-64
2022/06/02 03:00:02;;;;;;;3.88;2.53;;;;;;;14.68;51.37;100868.22;4108537;28;20049;-63
2022/06/02 03:02:09;;;;;;;;;;;;;;;14.45;51.93;100870.69;4110642;28;20495;-63
2022/06/02 03:04:23;;;;;;;4.28;2.60;;;;;;;14.54;52.32;100870.72;4113093;28;20278;-63
2022/06/02 03:06:31;;;;;;;5.28;2.58;;;;;;;14.57;52.18;100875.09;4115944;28;20090;-63
2022/06/02 03:08:44;;;;;;;6.20;2.67;;;;;;;14.56;51.53;100879.47;4099257;28;20051;-63
2022/06/02 03:10:54;;;;;;;4.25;2.55;;;;;;;14.53;52.07;100879.47;4109187;28;20035;-64
2022/06/02 03:13:06;;;;;;;4.82;2.42;;;;;;;14.51;51.68;100886.41;4114773;28;20053;-64
2022/06/02 03:15:17;;;;;;;7.65;2.22;;;;;;;14.43;52.80;100891.59;4115083;28;20064;-64
2022/06/02 03:17:28;;;;;;;4.97;2.78;;;;;;;14.35;52.38;100890.69;4109396;28;20047;-64
2022/06/02 03:19:49;;;;;;;3.70;2.28;;;;;;;14.26;53.24;100891.50;4114815;28;20055;-64
2022/06/02 03:22:06;;;;;;;6.95;2.20;;;;;;;14.13;53.23;100892.28;4114752;28;20050;-64
2022/06/02 03:24:44;;;;;;;5.35;2.15;;;;;;;14.08;53.99;100894.03;4112911;28;20043;-64
2022/06/02 03:27:03;;;;;;;4.40;2.58;;;;;;;14.07;54.20;100895.75;4107454;28;20046;-64
2022/06/02 03:29:12;;;;;;;10.48;3.00;;;;;;;14.09;54.14;100900.97;4099657;28;20055;-64
2022/06/02 03:31:22;;;;;;;9.20;2.63;;;;;;;14.05;53.94;100902.72;4113801;28;20043;-64
2022/06/02 03:33:51;;;;;;;5.43;2.40;;;;;;;14.03;53.85;100900.94;4108881;28;20050;-64
2022/06/02 03:36:05;;;;;;;7.78;2.60;;;;;;;13.93;54.40;100902.59;4114204;28;20050;-64
2022/06/02 03:38:19;;;;;;;5.10;2.75;;;;;;;13.91;54.81;100905.22;4109807;28;20057;-64
2022/06/02 03:40:31;;;;;;;4.15;2.70;;;;;;;13.85;54.50;100910.41;4093322;28;20051;-63
2022/06/02 03:42:44;;;;;;;5.30;2.67;;;;;;;13.83;54.92;100912.13;4107960;28;20081;-64
2022/06/02 03:45:01;;;;;;;4.55;2.80;;;;;;;13.73;55.61;100911.16;4108281;28;20049;-64
2022/06/02 03:47:27;;;;;;;4.15;2.67;;;;;;;13.71;55.95;100912.00;4078044;29;20126;-64
2022/06/02 03:49:48;;;;;;;7.15;2.80;;;;;;;13.74;56.59;100907.72;4105686;28;20125;-64
2022/06/02 03:52:02;;;;;;;6.20;2.88;;;;;;;13.73;56.70;100910.31;4100834;28;20047;-63
2022/06/02 03:54:30;;;;;;;5.88;2.30;;;;;;;13.70;57.07;100915.50;4108908;28;20035;-63
2022/06/02 03:56:52;;;;;;;4.70;2.50;;;;;;;13.71;57.38;100917.25;4111414;28;20441;-63
2022/06/02 03:59:12;;;;;;;5.07;2.47;;;;;;;13.72;57.76;100917.25;4110103;28;20050;-64
2022/06/02 04:01:23;;;;;;;4.97;2.60;;;;;;;13.77;58.14;100918.19;4090381;29;20043;-64
2022/06/02 04:03:38;;;;;;;3.78;2.53;;;;;;;13.82;57.45;100926.06;4107423;28;20054;-64
2022/06/02 04:06:00;;;;;;;4.22;2.50;;;;;;;13.77;58.37;100923.41;4107328;28;20569;-65
2022/06/02 04:08:25;;;;;;;6.57;2.63;;;;;;;13.81;58.84;100923.44;4105003;28;20129;-64
2022/06/02 04:10:37;;;;;;;7.63;3.03;;;;;;;13.81;58.82;100924.28;4108040;28;20051;-64
2022/06/02 04:15:40;;;;;;;6.43;2.30;;;;;;;13.83;58.75;100917.34;4114884;28;20411;-64
2022/06/02 04:17:48;;;;;;;5.18;2.95;;;;;;;13.85;58.60;100920.84;4108081;28;20042;-63
2022/06/02 04:20:35;;;;;;;7.10;2.70;;;;;;;13.86;58.94;100925.22;4102149;28;20047;-64
2022/06/02 04:22:54;;;;;;;5.30;2.53;;;;;;;13.90;58.38;100924.38;4109583;28;20042;-64
2022/06/02 04:25:12;;;;;;;3.00;2.20;;;;;;;13.94;58.63;100928.78;4114910;28;20050;-64
2022/06/02 04:27:26;;;;;;;6.95;3.85;;;;;;;13.98;58.54;100929.66;4087762;29;20062;-64
2022/06/02 04:29:46;;;;;;;5.07;3.30;;;;;;;14.10;56.65;100921.91;4096539;29;20130;-64
2022/06/02 04:31:59;;;;;;;7.47;3.80;;;;;;;14.25;55.14;100934.22;4107194;28;22387;-64
2022/06/02 04:36:51;;;;;;;6.68;4.20;;;;;;;14.38;54.38;100934.28;4077482;28;20047;-64
2022/06/02 04:38:59;;;;;;;6.88;4.25;;;;;;;14.46;54.43;100922.16;4091951;29;20031;-64
2022/06/02 04:41:14;;;;;;;8.13;4.70;;;;;;;14.56;53.94;100928.28;4107409;28;20047;-64
2022/06/02 04:43:27;;;;;;;9.55;3.90;;;;;;;14.57;53.79;100938.78;4097924;29;20039;-64
2022/06/02 04:45:36;;;;;;;5.85;3.97;;;;;;;14.62;53.39;100944.94;4113584;28;20170;-64
2022/06/02 04:47:52;;;;;;;9.00;4.30;;;;;;;14.66;53.18;100941.47;4107049;28;20043;-64
2022/06/02 04:50:02;;;;;;;6.35;4.00;;;;;;;14.70;53.89;100938.88;4099321;29;20043;-65
2022/06/02 04:52:14;;;;;;;7.57;4.22;;;;;;;14.78;53.50;100939.78;4066601;29;20058;-64
2022/06/02 04:54:29;;;;;;;10.52;4.43;;;;;;;14.86;52.59;100945.06;4099277;29;20043;-64
2022/06/02 04:56:42;;;;;;;7.57;4.93;;;;;;;14.88;52.78;100933.72;4082111;29;20555;-64
2022/06/02 04:58:54;;;;;;;10.98;4.65;;;;;;;14.95;52.38;100935.50;4097913;29;20054;-64
2022/06/02 05:01:05;;;;;;;10.13;4.80;;;;;;;14.96;51.95;100939.84;4104844;28;20066;-64
2022/06/02 05:03:16;;;;;;;7.25;4.82;;;;;;;15.11;50.97;100946.91;4082141;29;20134;-65
2022/06/02 05:05:31;;;;;;;6.50;4.65;;;;;;;15.04;51.60;100944.25;4113904;28;20043;-64
2022/06/02 05:07:56;;;;;;;8.15;4.47;;;;;;;14.97;51.53;100946.84;4114802;28;20042;-64
2022/06/02 05:10:12;;;;;;;7.53;4.32;;;;;;;15.11;51.26;100946.91;4098637;28;20125;-64
2022/06/02 05:12:28;;;;;;;6.60;4.50;;;;;;;15.11;51.94;100940.78;4109258;28;20063;-64
2022/06/02 05:14:37;;;;;;;8.95;4.70;;;;;;;15.14;51.27;100946.91;4106031;28;20138;-64
2022/06/02 05:16:49;;;;;;;7.78;4.85;;;;;;;15.19;51.14;100944.31;4090675;28;20062;-64
2022/06/02 05:19:22;;;;;;;8.38;4.22;;;;;;;15.24;50.43;100941.69;4085224;29;20085;-64
2022/06/02 05:21:50;;;;;;;7.93;4.20;;;;;;;15.24;51.61;100942.56;4102056;29;20049;-64
2022/06/02 05:24:28;;;;;;;11.00;5.03;;;;;;;15.47;50.69;100952.22;4085060;29;20048;-64
2022/06/02 05:27:04;;;;;;;6.60;4.13;;;;;;;15.40;50.84;100951.34;4101652;29;20054;-64
2022/06/02 05:29:29;;;;;;;6.70;4.38;;;;;;;15.42;50.81;100952.22;4107017;28;20041;-63
2022/06/02 05:31:52;;;;;;;6.97;4.25;;;;;;;15.47;51.01;100954.84;4110091;28;20054;-64
2022/06/02 05:34:19;;;;;;;9.50;3.55;;;;;;;15.62;49.65;100954.00;4100699;29;20491;-66
2022/06/02 05:36:32;;;;;;;6.80;4.15;;;;;;;15.66;49.29;100961.84;4115680;28;20035;-64
2022/06/02 05:39:01;;;;;;;8.05;4.05;;;;;;;15.65;49.86;100957.50;4087096;29;20122;-64
2022/06/02 05:41:16;;;;;;;5.88;3.38;;;;;;;15.62;50.37;100959.25;4066442;28;20059;-64
2022/06/02 05:43:30;;;;;;;6.87;4.43;;;;;;;15.67;49.42;100962.75;4109989;28;20541;-65
2022/06/02 05:45:57;;;;;;;6.75;4.38;;;;;;;15.75;49.70;100962.75;4084682;29;20047;-64
2022/06/02 05:48:21;;;;;;;6.55;4.22;;;;;;;15.82;49.34;100970.66;4084787;29;20079;-64
2022/06/02 05:50:36;;;;;;;7.97;4.30;;;;;;;15.79;48.90;100957.53;4101815;29;20391;-64
2022/06/02 05:52:49;;;;;;;6.28;3.90;;;;;;;15.81;49.35;100965.41;4104450;28;20492;-64
2022/06/02 05:55:13;;;;;;;6.78;3.88;;;;;;;15.95;48.86;100966.28;4109628;28;20508;-64
2022/06/02 05:57:32;;;;;;;7.43;3.97;;;;;;;15.97;48.48;100966.28;4117167;28;20126;-64
2022/06/02 06:00:11;;;;;;;7.80;3.50;;;;;;;15.96;48.51;100972.41;4116262;28;20049;-64
2022/06/02 06:02:38;;;;;;;6.47;3.90;;;;;;;15.97;49.28;100976.78;4103015;28;20093;-64
2022/06/02 06:05:02;;;;;;;6.35;3.65;;;;;;;16.10;48.48;100986.38;4117493;28;20062;-64
2022/06/02 06:07:14;;;;;;;6.25;3.88;;;;;;;16.29;48.26;100982.00;4114928;28;20042;-64
2022/06/02 06:09:29;;;;;;;5.68;3.55;;;;;;;16.24;48.04;100978.53;4094216;29;20044;-64
2022/06/02 06:11:53;;;;;;;10.13;3.50;;;;;;;16.35;47.18;100979.41;4101463;29;20051;-64
2022/06/02 06:14:18;;;;;;;6.18;3.60;;;;;;;16.42;47.03;100979.38;4084395;29;20067;-64
2022/06/02 06:16:26;;;;;;;5.87;3.63;;;;;;;16.46;46.62;100979.38;4100936;29;20047;-64
2022/06/02 06:18:46;;;;;;;6.97;3.50;;;;;;;16.43;46.33;100975.88;4100328;29;20489;-64
2022/06/02 06:21:02;;;;;;;6.45;4.00;;;;;;;16.48;46.70;100974.13;4101277;28;20074;-64
2022/06/02 06:23:35;;;;;;;7.95;3.60;;;;;;;16.42;46.43;100968.88;4098753;29;20043;-64
2022/06/02 06:25:51;;;;;;;6.97;3.60;;;;;;;16.47;46.49;100973.25;4097638;28;20577;-65
2022/06/02 06:28:09;;;;;;;6.18;3.55;;;;;;;16.46;45.77;100984.63;4116163;28;20502;-64
2022/06/02 06:30:24;;;;;;;6.70;3.55;;;;;;;16.60;45.72;100983.72;4117107;28;20414;-64
2022/06/02 06:32:38;;;;;;;10.82;3.17;;;;;;;16.55;45.50;100983.72;4117102;28;20043;-64
2022/06/02 06:34:46;;;;;;;9.43;3.87;;;;;;;16.59;44.96;100988.09;4117090;28;20131;-64
2022/06/02 06:37:10;;;;;;;5.55;3.50;;;;;;;16.65;44.32;100979.34;4111842;28;20061;-65
2022/06/02 06:39:24;;;;;;;8.15;4.25;;;;;;;16.68;44.86;100988.06;4108777;28;20411;-64
2022/06/02 06:41:50;;;;;;;7.85;5.15;;;;;;;16.68;44.83;100992.47;4083968;29;20043;-64
2022/06/02 06:44:00;;;;;;;;;;;;;;;16.61;45.33;100988.97;4075208;29;20139;-65
2022/06/02 06:46:10;;;;;;;6.57;3.55;;;;;;;16.71;45.19;100977.56;4110544;28;19923;-64
2022/06/02 06:48:19;;;;;;;6.78;3.53;;;;;;;16.81;44.81;100978.41;4097146;29;20511;-64
2022/06/02 06:50:29;;;;;;;5.18;3.08;;;;;;;16.83;44.74;100973.16;4115500;28;20043;-64
2022/06/02 06:52:44;;;;;;;4.90;3.13;;;;;;;16.92;43.97;100981.03;4098143;28;20043;-64
2022/06/02 06:54:53;;;;;;;;;;;;;;;16.98;43.66;100982.75;4092013;29;20070;-64
2022/06/02 06:57:01;;;;;;;6.72;3.25;;;;;;;16.93;43.66;100970.50;4107763;28;20393;-64
2022/06/02 06:59:26;;;;;;;4.47;3.10;;;;;;;16.90;44.63;100980.16;4095176;29;20047;-64
2022/06/02 07:01:42;;;;;;;4.50;2.92;;;;;;;16.94;44.58;100976.66;4083532;29;20095;-64
2022/06/02 07:03:52;;;;;;;6.57;2.35;;;;;;;17.06;44.16;100980.97;4100760;29;20067;-64
2022/06/02 07:06:01;;;;;;;4.28;2.90;;;;;;;17.09;43.90;100978.34;4067498;29;20143;-64
2022/06/02 07:08:15;;;;;;;5.57;2.67;;;;;;;17.20;43.87;100986.16;4105950;28;20038;-64
2022/06/02 07:10:23;;;;;;;5.55;2.92;;;;;;;17.19;43.73;100980.03;4108405;28;20429;-64
2022/06/02 07:12:51;;;;;;;4.95;2.70;;;;;;;17.07;43.80;100983.59;4099199;29;20099;-64
2022/06/02 07:15:01;;;;;;;4.10;2.60;;;;;;;17.22;43.40;100987.03;4099302;29;20058;-64
2022/06/02 07:17:13;;;;;;;4.88;2.65;;;;;;;17.28;43.79;100989.63;4115969;28;20126;-64
2022/06/02 07:19:22;;;;;;;3.33;2.08;;;;;;;17.34;43.84;100979.09;4099086;29;20043;-64
2022/06/02 07:21:32;;;;;;;5.13;2.78;;;;;;;17.45;42.89;100982.53;4098178;29;20054;-64
2022/06/02 07:23:52;;;;;;;8.98;1.95;;;;;;;17.49;43.28;100977.25;4108234;28;20039;-64
2022/06/02 07:26:15;;;;;;;7.05;2.35;;;;;;;17.55;42.05;100974.56;4099893;29;20227;-65
2022/06/02 07:28:30;;;;;;;3.67;2.03;;;;;;;17.41;42.55;100975.53;4100175;29;20046;-64
2022/06/02 07:30:49;;;;;;;4.78;1.90;;;;;;;17.51;42.99;100973.75;4100245;29;20051;-64
2022/06/02 07:33:21;;;;;;;3.45;1.90;;;;;;;17.66;42.39;100959.59;4083140;29;20047;-64
2022/06/02 07:35:51;;;;;;;3.63;2.05;;;;;;;17.64;41.85;100971.91;4083066;29;20058;-63
2022/06/02 07:38:02;;;;;;;4.10;1.67;;;;;;;17.62;41.92;100971.91;4077868;29;20049;-64
2022/06/02 07:40:26;;;;;;;4.97;2.20;;;;;;;17.76;41.78;100969.19;4112398;28;20046;-64
2022/06/02 07:43:15;;;;;;;2.78;1.77;;;;;;;17.72;41.76;100959.56;4099058;29;20106;-64
2022/06/02 07:45:38;;;;;;;2.05;1.80;;;;;;;17.69;41.97;100958.72;4108294;28;20494;-64
2022/06/02 07:47:59;;;;;;;9.75;2.33;;;;;;;17.89;40.94;100966.47;4107611;28;20430;-64
2022/06/02 07:50:10;;;;;;;1.75;1.45;;;;;;;17.90;41.45;100962.97;4102232;28;20405;-64
2022/06/02 07:52:23;;;;;;;1.92;1.63;;;;;;;18.10;41.39;100968.06;4107828;28;20045;-64
2022/06/02 07:54:36;;;;;;;4.32;2.25;;;;;;;18.21;40.15;100963.59;4083530;29;20468;-64
2022/06/02 07:56:53;;;;;;;5.15;2.03;;;;;;;18.22;40.07;100967.09;4099364;29;20054;-64
2022/06/02 07:59:05;;;;;;;6.47;2.10;;;;;;;18.40;38.61;100968.66;4082599;29;20052;-64
2022/06/02 08:01:24;;;;;;;3.13;1.58;;;;;;;18.31;38.71;100969.63;4082691;29;20054;-64
2022/06/02 08:04:01;;;;;;;2.40;1.35;;;;;;;18.26;38.75;100971.44;4067018;29;20118;-64
2022/06/02 08:06:10;;;;;;;1.10;1.02;;;;;;;18.38;38.78;100979.19;4091738;29;20087;-64
2022/06/02 08:08:41;;;;;;;5.40;1.50;;;;;;;18.32;38.84;100976.63;4099840;29;20095;-64
2022/06/02 08:10:57;;;;;;;4.53;2.25;;;;;;;18.37;39.17;100977.47;4099800;29;20106;-64
2022/06/02 08:13:09;;;;;;;3.33;1.80;;;;;;;18.51;38.35;100981.72;4082603;29;20054;-64
2022/06/02 08:15:22;;;;;;;4.35;2.50;;;;;;;18.49;38.35;100977.34;4082625;29;20047;-64
2022/06/02 08:17:31;;;;;;;1.60;1.50;;;;;;;18.58;38.88;100976.38;4066556;29;20075;-64
2022/06/02 08:19:46;;;;;;;4.15;1.88;;;;;;;18.60;38.17;100986.88;4102807;28;20061;-64
2022/06/02 08:21:53;;;;;;;2.45;1.60;;;;;;;18.74;38.26;100976.22;4098244;29;20043;-65
2022/06/02 08:24:20;;;;;;;2.97;1.73;;;;;;;18.76;37.38;100970.06;4115606;28;20520;-64
2022/06/02 08:26:34;;;;;;;3.47;1.52;;;;;;;18.68;39.02;100971.88;4097895;29;20043;-64
2022/06/02 08:28:55;;;;;;;2.35;1.65;;;;;;;18.79;38.30;100974.38;4098214;29;20043;-65
2022/06/02 08:31:07;;;;;;;3.10;1.77;;;;;;;18.82;37.85;100980.50;4114514;28;20498;-65
2022/06/02 08:33:24;;;;;;;5.32;2.30;;;;;;;18.93;37.79;100982.19;4097657;29;20046;-65
2022/06/02 08:35:34;;;;;;;4.22;1.88;;;;;;;18.80;37.82;100974.38;4107299;28;20094;-64
2022/06/02 08:37:46;;;;;;;6.18;1.88;;;;;;;18.63;39.00;100976.31;4099068;29;20050;-65
2022/06/02 08:40:47;;;;;;;3.85;1.63;;;;;;;18.86;39.53;100975.19;4099355;29;20075;-64
2022/06/02 08:43:20;;;;;;;2.75;1.30;;;;;;;18.90;38.43;100969.03;4088365;28;20059;-65
2022/06/02 08:46:12;;;;;;;4.65;2.22;;;;;;;19.09;39.01;100969.69;4066168;29;20055;-64
2022/06/02 08:48:38;;;;;;;1.75;1.27;;;;;;;19.04;37.14;100966.22;4051532;29;20051;-64
2022/06/02 08:51:28;;;;;;;2.85;1.85;;;;;;;19.21;37.34;100969.50;4099544;28;20039;-64
2022/06/02 08:54:05;;;;;;;4.57;2.15;;;;;;;19.04;37.74;100976.75;4110474;28;20070;-64
2022/06/02 08:56:34;;;;;;;;;;;;;;;18.86;37.63;100976.09;4085649;29;20044;-64
2022/06/02 08:59:10;;;;;;;4.50;1.90;;;;;;;18.94;38.09;100973.34;4073663;28;20381;-64
2022/06/02 09:01:33;;;;;;;4.22;1.95;;;;;;;19.07;38.77;100988.16;4115886;28;20058;-65
2022/06/02 09:04:26;;;;;;;5.70;2.22;;;;;;;19.16;37.83;100995.94;4118486;28;20053;-64
2022/06/02 09:07:03;;;;;;;3.60;1.85;;;;;;;19.01;38.71;100986.47;4117170;28;20039;-65
2022/06/02 09:09:43;;;;;;;3.40;1.83;;;;;;;19.18;38.04;100985.38;4110412;28;20039;-64
2022/06/02 09:12:20;;;;;;;4.28;1.75;;;;;;;19.23;38.19;100982.66;4102438;29;20039;-64
2022/06/02 09:15:01;;;;;;;2.38;1.85;;;;;;;19.12;38.36;100978.41;4087762;29;20043;-65
2022/06/02 09:17:26;;;;;;;2.42;1.58;;;;;;;19.25;38.42;100967.72;4114222;28;20054;-65
2022/06/02 09:19:38;;;;;;;4.10;1.93;;;;;;;19.48;38.36;100970.03;4118091;28;20039;-64
2022/06/02 09:22:07;;;;;;;5.53;2.08;;;;;;;19.80;36.69;100959.03;4118111;28;20056;-64
2022/06/02 09:24:25;;;;;;;3.33;1.98;;;;;;;19.66;38.05;100977.66;4100718;29;20055;-64
2022/06/02 09:27:04;;;;;;;4.00;1.88;;;;;;;19.79;37.42;100977.50;4116350;28;20050;-64
2022/06/02 09:29:24;;;;;;;3.67;1.70;;;;;;;19.83;37.57;100964.25;4066718;29;20083;-65
2022/06/02 09:32:08;;;;;;;4.75;2.40;;;;;;;19.82;37.50;100974.81;4109026;28;20055;-65
2022/06/02 09:34:41;;;;;;;3.28;2.10;;;;;;;19.80;36.70;100974.84;4100841;29;20047;-64
2022/06/02 09:37:17;;;;;;;3.10;1.52;;;;;;;19.60;38.08;100964.56;4117590;28;20475;-65
2022/06/02 09:39:35;;;;;;;1.50;1.40;;;;;;;19.61;38.79;100968.06;4117708;28;20049;-65
2022/06/02 09:41:57;;;;;;;3.80;2.10;;;;;;;19.83;37.71;100966.00;4100610;29;20043;-65
2022/06/02 09:44:08;;;;;;;7.95;2.10;;;;;;;19.91;37.59;100961.47;4092563;29;20043;-64
2022/06/02 09:46:34;;;;;;;4.35;2.10;;;;;;;20.04;36.91;100962.16;4112622;28;20053;-64
2022/06/02 09:49:06;;;;;;;3.20;1.55;;;;;;;20.01;37.72;100970.13;4109557;28;20038;-65
2022/06/02 09:51:41;;;;;;;2.67;1.20;;;;;;;20.10;38.24;100967.31;4088826;29;20043;-65
2022/06/02 09:54:00;;;;;;;6.30;1.70;;;;;;;20.33;37.06;100958.97;4109615;28;20070;-64
2022/06/02 09:56:16;;;;;;;5.57;2.00;;;;;;;20.40;35.88;100960.63;4101291;29;20537;-65
2022/06/02 09:58:36;;;;;;;3.22;1.63;;;;;;;20.43;35.47;100967.63;4084718;29;20467;-64
2022/06/02 10:01:01;;;;;;;1.80;1.50;;;;;;;20.27;35.35;100963.50;4108828;28;20112;-64
2022/06/02 10:03:34;;;;;;;4.35;1.55;;;;;;;20.31;36.54;100973.09;4108247;28;20054;-65
2022/06/02 10:06:04;;;;;;;4.28;1.20;;;;;;;20.46;36.86;100967.56;4101569;29;20079;-65
2022/06/02 10:08:21;;;;;;;2.50;1.30;;;;;;;20.58;36.48;100964.66;4101499;29;20479;-65
2022/06/02 10:10:45;;;;;;;4.88;1.52;;;;;;;20.87;35.61;100959.75;4084328;29;20052;-65
2022/06/02 10:13:03;;;;;;;2.53;1.20;;;;;;;20.91;35.66;100953.50;4101431;29;20256;-65
2022/06/02 10:15:22;;;;;;;2.78;0.90;;;;;;;20.91;35.83;100957.03;4102964;28;20039;-65
2022/06/02 10:17:46;;;;;;;4.25;1.20;;;;;;;20.99;35.95;100963.91;4109684;28;20049;-65
2022/06/02 10:20:25;;;;;;;3.10;1.00;;;;;;;20.93;37.90;100963.13;4101227;29;20130;-65
2022/06/02 10:22:39;;;;;;;2.28;1.10;;;;;;;20.93;36.66;100959.63;4081343;29;20064;-65
2022/06/02 10:25:13;;;;;;;1.98;1.33;;;;;;;21.07;36.30;100956.69;4101190;29;20058;-65
2022/06/02 10:27:57;;;;;;;4.45;1.40;;;;;;;21.22;35.54;100951.06;4083651;29;20586;-65
2022/06/02 10:30:32;;;;;;;5.07;1.17;;;;;;;21.21;34.21;100951.97;4059780;29;20051;-64
2022/06/02 10:33:07;;;;;;;3.25;1.60;;;;;;;21.26;33.40;100950.09;4083866;29;20056;-65
2022/06/02 10:35:32;;;;;;;2.73;1.57;;;;;;;21.10;34.75;100946.06;4084050;29;20051;-65
2022/06/02 10:38:01;;;;;;;2.53;1.30;;;;;;;21.20;33.92;100949.34;4100832;29;20525;-64
2022/06/02 10:40:36;;;;;;;4.82;1.60;;;;;;;21.23;34.09;100942.25;4083938;29;20540;-64
2022/06/02 10:43:08;;;;;;;5.38;1.38;;;;;;;21.18;33.89;100938.81;4100919;29;20062;-64
2022/06/02 10:45:27;;;;;;;5.43;1.35;;;;;;;21.24;33.86;100938.66;4106000;28;20133;-64
2022/06/02 10:48:04;;;;;;;3.40;1.25;;;;;;;21.19;35.01;100956.44;4109261;28;20119;-65
2022/06/02 10:50:27;;;;;;;2.08;0.90;;;;;;;21.32;34.81;100950.84;4083660;29;20051;-65
2022/06/02 10:53:15;;;;;;;2.17;1.08;;;;;;;21.45;34.01;100952.34;4083731;29;20051;-65
2022/06/02 10:55:59;;;;;;;2.95;1.45;;;;;;;21.66;34.13;100947.47;4116707;28;20054;-64
2022/06/02 10:58:39;;;;;;;1.70;1.10;;;;;;;21.63;34.17;100942.25;4069530;28;20533;-65